Time;durP1;ratioP1;P1;durP2;ratioP2;P2;SDS_P1;SDS_P2;PMS_P1;PMS_P2;Temp;Humidity;BMP_temperature;BMP_pressure;BME280_temperature;BME280_humidity;BME280_pressure;Samples;Min_cycle;Max_cycle;Signal;HPM_P1;HPM_P2
2023/04/24 00:02:00;;;;;;;7.47;2.78;;;;;;;10.05;100.00;99969.88;5028198;28;20026;-58
2023/04/24 00:04:26;;;;;;;5.25;3.60;;;;;;;10.04;100.00;99972.56;5028866;28;20101;-55
2023/04/24 00:06:56;;;;;;;4.30;3.17;;;;;;;9.98;100.00;99971.94;5027043;28;20460;-59
2023/04/24 00:09:22;;;;;;;6.43;3.40;;;;;;;10.04;100.00;99965.53;5027554;28;20033;-56
2023/04/24 00:11:47;;;;;;;5.05;3.20;;;;;;;10.06;100.00;99968.94;5026729;28;20017;-59
2023/04/24 00:14:13;;;;;;;10.57;3.80;;;;;;;10.05;100.00;99971.66;5027447;28;20032;-57
2023/04/24 00:16:38;;;;;;;9.45;4.13;;;;;;;10.03;100.00;99971.72;5028117;28;20156;-56
2023/04/24 00:19:05;;;;;;;6.97;4.20;;;;;;;10.07;100.00;99970.66;5028080;28;20037;-57
2023/04/24 00:21:32;;;;;;;9.63;4.07;;;;;;;10.13;100.00;99966.88;5028543;28;20431;-58
2023/04/24 00:23:58;;;;;;;9.27;4.28;;;;;;;10.11;100.00;99972.22;5044240;28;20033;-57
2023/04/24 00:26:23;;;;;;;8.68;4.20;;;;;;;10.20;100.00;99975.34;5043331;28;20116;-54
2023/04/24 00:28:48;;;;;;;10.68;4.22;;;;;;;10.21;100.00;99977.91;5028360;28;20104;-60
2023/04/24 00:31:14;;;;;;;4.22;3.55;;;;;;;10.17;100.00;99978.97;5026465;28;20022;-56
2023/04/24 00:33:39;;;;;;;5.20;3.10;;;;;;;10.28;100.00;99975.84;5027277;28;20026;-56
2023/04/24 00:36:05;;;;;;;4.97;2.58;;;;;;;10.24;100.00;99974.28;5026337;28;20056;-54
2023/04/24 00:38:31;;;;;;;4.50;3.28;;;;;;;10.29;100.00;99969.66;5028374;28;20053;-58
2023/04/24 00:40:56;;;;;;;4.85;2.80;;;;;;;10.28;100.00;99973.22;5027888;28;20108;-57
2023/04/24 00:43:21;;;;;;;6.03;3.05;;;;;;;10.36;100.00;99971.06;5025845;28;20091;-56
2023/04/24 00:45:47;;;;;;;2.47;2.22;;;;;;;10.31;100.00;99978.34;5030695;28;20041;-59
2023/04/24 00:48:12;;;;;;;3.80;1.95;;;;;;;10.36;100.00;99976.34;5036650;28;20026;-59
2023/04/24 00:50:38;;;;;;;3.22;1.70;;;;;;;10.29;100.00;99974.91;5047535;28;20041;-55
2023/04/24 00:53:03;;;;;;;2.47;1.80;;;;;;;10.30;100.00;99974.00;5046867;28;20298;-55
2023/04/24 00:55:29;;;;;;;2.65;1.60;;;;;;;10.34;100.00;99977.34;5027765;28;20456;-58
2023/04/24 00:57:54;;;;;;;4.07;1.70;;;;;;;10.29;100.00;99974.09;5046323;28;20025;-58
2023/04/24 01:00:20;;;;;;;4.55;1.40;;;;;;;10.31;100.00;99980.13;5047049;28;20032;-54
2023/04/24 01:02:45;;;;;;;3.70;1.60;;;;;;;10.36;100.00;99972.88;5101858;22;20050;-57
2023/04/24 01:05:14;;;;;;;2.92;1.30;;;;;;;10.35;100.00;99977.28;4987646;28;20065;-59
2023/04/24 01:07:45;;;;;;;4.45;1.60;;;;;;;10.38;100.00;99978.06;4987756;28;20030;-55
2023/04/24 01:10:11;;;;;;;3.85;1.80;;;;;;;10.32;100.00;99980.03;4987049;28;20072;-57
2023/04/24 01:12:37;;;;;;;3.83;1.58;;;;;;;10.34;100.00;99972.06;4987787;28;20034;-58
2023/04/24 01:15:03;;;;;;;3.75;1.65;;;;;;;10.37;100.00;99977.19;4987772;28;20022;-58
2023/04/24 01:17:29;;;;;;;5.68;2.65;;;;;;;10.35;100.00;99976.41;4988371;28;20033;-57
2023/04/24 01:19:56;;;;;;;4.75;3.30;;;;;;;10.36;100.00;99978.13;4987066;28;20034;-59
2023/04/24 01:22:22;;;;;;;6.72;4.38;;;;;;;10.40;100.00;99977.06;4987487;28;20171;-58
2023/04/24 01:24:47;;;;;;;6.45;4.30;;;;;;;10.34;100.00;99978.22;4987148;28;20099;-58
2023/04/24 01:27:13;;;;;;;6.68;4.32;;;;;;;10.33;100.00;99976.47;4987860;28;20079;-52
2023/04/24 01:29:38;;;;;;;5.93;4.40;;;;;;;10.31;100.00;99977.47;4987730;28;20056;-59
2023/04/24 01:32:05;;;;;;;10.32;4.53;;;;;;;10.31;100.00;99980.97;4987747;28;20037;-57
2023/04/24 01:34:30;;;;;;;6.50;4.28;;;;;;;10.36;100.00;99975.50;4988317;28;20460;-60
2023/04/24 01:36:56;;;;;;;8.98;4.50;;;;;;;10.40;100.00;99981.47;4987849;28;20022;-57
2023/04/24 01:39:23;;;;;;;7.90;4.75;;;;;;;10.34;100.00;99988.75;4986685;28;20034;-58
2023/04/24 01:41:49;;;;;;;8.73;4.30;;;;;;;10.41;100.00;99981.41;4987522;28;20050;-55
2023/04/24 01:44:15;;;;;;;6.40;4.10;;;;;;;10.33;100.00;99984.38;4987465;28;20492;-60
2023/04/24 01:46:41;;;;;;;5.28;4.30;;;;;;;10.31;100.00;99980.97;4987186;28;20498;-58
2023/04/24 01:49:06;;;;;;;4.32;3.90;;;;;;;10.29;100.00;99977.56;4985538;28;20027;-57
2023/04/24 01:51:32;;;;;;;6.47;3.97;;;;;;;10.30;100.00;99976.63;4987533;28;20049;-57
2023/04/24 01:53:57;;;;;;;4.68;3.72;;;;;;;10.34;100.00;99974.72;5001926;28;20146;-61
2023/04/24 01:56:22;;;;;;;6.75;4.20;;;;;;;10.34;100.00;99975.56;4986766;28;20018;-55
2023/04/24 01:58:49;;;;;;;6.28;3.55;;;;;;;10.35;100.00;99979.03;4987348;28;20053;-58
2023/04/24 02:01:18;;;;;;;5.65;3.72;;;;;;;10.31;100.00;99978.34;4985347;28;20072;-58
2023/04/24 02:03:43;;;;;;;4.05;3.65;;;;;;;10.24;100.00;99975.13;4986513;28;20046;-58
2023/04/24 02:06:09;;;;;;;5.43;3.05;;;;;;;10.22;100.00;99976.13;5003134;28;20022;-57
2023/04/24 02:08:34;;;;;;;4.22;3.33;;;;;;;10.15;100.00;99977.34;4987634;28;20022;-56
2023/04/24 02:11:01;;;;;;;6.35;3.45;;;;;;;10.17;100.00;99983.41;4987041;28;20389;-56
2023/04/24 02:13:27;;;;;;;4.32;3.40;;;;;;;10.20;100.00;99973.56;4988117;28;20026;-58
2023/04/24 02:15:52;;;;;;;7.07;3.70;;;;;;;10.21;100.00;99975.28;4987103;28;20069;-59
2023/04/24 02:18:17;;;;;;;6.80;3.78;;;;;;;10.20;100.00;99975.34;4985803;28;20026;-58
2023/04/24 02:20:43;;;;;;;6.03;4.03;;;;;;;10.20;100.00;99975.34;4987903;28;20022;-59
2023/04/24 02:23:08;;;;;;;8.10;4.57;;;;;;;10.23;100.00;99969.94;4987676;28;20448;-54
2023/04/24 02:25:33;;;;;;;6.88;4.95;;;;;;;10.22;100.00;99973.50;4987462;28;20046;-58
2023/04/24 02:27:59;;;;;;;7.63;5.28;;;;;;;10.19;100.00;99973.66;4987582;28;20030;-57
2023/04/24 02:30:24;;;;;;;4.95;4.25;;;;;;;10.24;100.00;99977.75;4985537;28;20030;-58
2023/04/24 02:32:49;;;;;;;7.53;5.30;;;;;;;10.28;100.00;99972.34;4987658;28;20038;-54
2023/04/24 02:35:15;;;;;;;8.80;5.47;;;;;;;10.27;100.00;99970.66;4987095;28;20100;-58
2023/04/24 02:37:40;;;;;;;9.13;5.07;;;;;;;10.23;100.00;99964.66;4986992;28;20022;-55
2023/04/24 02:40:06;;;;;;;9.05;6.53;;;;;;;10.10;100.00;99960.00;4986706;28;20019;-57
2023/04/24 02:42:31;;;;;;;7.65;5.65;;;;;;;10.18;100.00;99971.94;4986148;28;20034;-57
2023/04/24 02:44:57;;;;;;;9.23;5.60;;;;;;;10.20;100.00;99968.31;4985563;28;20214;-57
2023/04/24 02:47:22;;;;;;;8.82;6.13;;;;;;;10.21;100.00;99966.53;4987025;28;20019;-57
2023/04/24 02:49:47;;;;;;;7.15;5.45;;;;;;;10.22;100.00;99966.47;4986843;28;20045;-55
2023/04/24 02:52:14;;;;;;;7.72;4.32;;;;;;;10.13;100.00;99961.63;4986195;28;20057;-59
2023/04/24 02:54:39;;;;;;;5.97;3.92;;;;;;;10.10;100.00;99961.75;4986219;28;20487;-56
2023/04/24 02:57:05;;;;;;;5.55;3.70;;;;;;;10.12;100.00;99967.81;4987935;28;20036;-58
2023/04/24 02:59:31;;;;;;;3.47;2.40;;;;;;;10.03;100.00;99969.09;4990343;28;20378;-56
2023/04/24 03:01:57;;;;;;;2.35;1.83;;;;;;;10.06;100.00;99963.66;4990681;28;20096;-55
2023/04/24 03:04:22;;;;;;;2.35;1.00;;;;;;;10.00;100.00;99961.34;4990073;28;20054;-58
2023/04/24 03:06:48;;;;;;;3.88;1.10;;;;;;;9.99;100.00;99963.09;4990701;28;20054;-54
2023/04/24 03:09:13;;;;;;;0.98;0.93;;;;;;;10.02;100.00;99964.75;4988850;28;20026;-57
2023/04/24 03:11:38;;;;;;;3.00;1.20;;;;;;;9.89;100.00;99976.75;4990788;28;20084;-59
2023/04/24 03:14:04;;;;;;;2.00;0.88;;;;;;;9.83;100.00;99973.47;4990478;28;20019;-56
2023/04/24 03:16:29;;;;;;;3.33;0.93;;;;;;;9.78;100.00;99966.72;4990398;28;20180;-56
2023/04/24 03:18:55;;;;;;;5.20;1.23;;;;;;;9.73;100.00;99973.03;4990365;28;20033;-58
2023/04/24 03:21:20;;;;;;;4.47;0.60;;;;;;;9.70;100.00;99975.78;4990290;28;20034;-55
2023/04/24 03:23:45;;;;;;;1.25;0.70;;;;;;;9.66;100.00;99965.50;4989438;28;20472;-59
2023/04/24 03:26:11;;;;;;;2.63;0.98;;;;;;;9.68;100.00;99967.13;4988789;28;20436;-58
2023/04/24 03:28:36;;;;;;;2.85;0.80;;;;;;;9.67;100.00;99982.97;4990561;28;20620;-56
2023/04/24 03:31:02;;;;;;;2.38;0.70;;;;;;;9.58;100.00;99981.59;4989784;28;20030;-60
2023/04/24 03:33:28;;;;;;;3.55;1.23;;;;;;;9.49;100.00;99980.22;4989979;28;20575;-55
2023/04/24 03:35:53;;;;;;;4.75;0.80;;;;;;;9.46;100.00;99985.63;4989616;28;20037;-56
2023/04/24 03:38:18;;;;;;;3.10;0.75;;;;;;;9.51;100.00;99995.94;4986347;28;20023;-55
2023/04/24 03:40:44;;;;;;;2.03;0.73;;;;;;;9.41;100.00;99995.47;4978796;28;20023;-56
2023/04/24 03:43:09;;;;;;;4.30;0.85;;;;;;;9.51;100.00;99994.16;4988778;28;20481;-56
2023/04/24 03:45:34;;;;;;;2.97;0.55;;;;;;;9.56;100.00;99989.56;4989104;28;20117;-58
2023/04/24 03:48:00;;;;;;;1.67;0.80;;;;;;;9.56;100.00;99989.56;4989729;28;20026;-56
2023/04/24 03:50:26;;;;;;;2.92;0.80;;;;;;;9.54;100.00;99996.66;4989522;28;20018;-57
2023/04/24 03:52:51;;;;;;;5.15;0.70;;;;;;;9.54;100.00;99983.50;4989015;28;20499;-61
2023/04/24 03:55:17;;;;;;;3.35;0.52;;;;;;;9.51;100.00;99994.16;4988355;28;20030;-56
2023/04/24 03:57:42;;;;;;;3.13;0.80;;;;;;;9.56;100.00;99997.44;4988796;28;20033;-57
2023/04/24 04:00:08;;;;;;;0.50;0.50;;;;;;;9.64;100.00;99986.59;4987999;28;20077;-58
2023/04/24 04:02:34;;;;;;;2.72;0.40;;;;;;;9.55;100.00;99990.50;4988965;28;20100;-58
2023/04/24 04:04:59;;;;;;;1.75;0.70;;;;;;;9.58;100.00;99987.69;4989531;28;20026;-57
2023/04/24 04:07:25;;;;;;;0.88;0.50;;;;;;;9.65;100.00;99990.06;4988554;28;20026;-54
2023/04/24 04:09:50;;;;;;;2.78;0.65;;;;;;;9.67;100.00;100001.38;4988233;28;20030;-58
2023/04/24 04:12:16;;;;;;;0.68;0.50;;;;;;;9.63;100.00;100005.06;4988962;28;20030;-57
2023/04/24 04:14:41;;;;;;;1.65;0.80;;;;;;;9.67;100.00;100010.16;4988436;28;20413;-57
2023/04/24 04:17:06;;;;;;;1.20;0.60;;;;;;;9.59;100.00;100005.22;4988830;28;20145;-57
2023/04/24 04:19:32;;;;;;;4.03;0.47;;;;;;;9.68;100.00;100011.84;4988744;28;20392;-61
2023/04/24 04:21:57;;;;;;;1.73;0.55;;;;;;;9.64;100.00;100010.28;4988479;28;20473;-55
2023/04/24 04:24:23;;;;;;;1.13;0.70;;;;;;;9.66;100.00;100018.09;4987973;28;20019;-52
2023/04/24 04:26:50;;;;;;;1.27;0.70;;;;;;;9.69;100.00;100018.81;4987266;28;20080;-50
2023/04/24 04:29:16;;;;;;;0.52;0.47;;;;;;;9.68;100.00;100035.50;4988291;28;20457;-57
2023/04/24 04:31:41;;;;;;;0.70;0.70;;;;;;;9.70;100.00;100032.81;4974908;28;20089;-58
2023/04/24 04:34:07;;;;;;;3.45;0.80;;;;;;;9.70;100.00;100031.03;4987736;28;20029;-58
2023/04/24 04:36:36;;;;;;;1.80;0.73;;;;;;;9.71;100.00;100042.41;4987892;28;20080;-58
2023/04/24 04:39:03;;;;;;;2.45;0.60;;;;;;;9.71;100.00;100042.41;4972810;28;20426;-60
2023/04/24 04:41:29;;;;;;;1.85;0.70;;;;;;;9.70;100.00;100044.19;4987123;28;20019;-58
2023/04/24 04:43:54;;;;;;;1.48;0.77;;;;;;;9.64;100.00;100055.00;4986873;28;20440;-57
2023/04/24 04:46:20;;;;;;;2.28;1.40;;;;;;;9.67;100.00;100051.38;4985026;28;20674;-58
2023/04/24 04:48:45;;;;;;;2.60;1.15;;;;;;;9.68;100.00;100059.19;4987000;28;20022;-57
2023/04/24 04:51:11;;;;;;;2.20;1.20;;;;;;;9.69;100.00;100068.78;4986484;28;20546;-56
2023/04/24 04:53:36;;;;;;;2.10;1.10;;;;;;;9.63;100.00;100087.47;4985844;28;20058;-57
2023/04/24 04:56:01;;;;;;;2.65;1.50;;;;;;;9.54;100.00;100077.34;4986013;28;20018;-60
2023/04/24 04:58:27;;;;;;;3.97;1.98;;;;;;;9.57;100.00;100085.09;4995253;28;20105;-55
2023/04/24 05:00:53;;;;;;;8.07;2.60;;;;;;;9.53;100.00;100092.25;4989530;28;20045;-58
2023/04/24 05:03:18;;;;;;;7.43;2.60;;;;;;;9.38;100.00;100099.00;4985508;28;20413;-59
2023/04/24 05:05:43;;;;;;;5.82;3.05;;;;;;;9.27;100.00;100106.47;4986638;28;20033;-61
2023/04/24 05:08:08;;;;;;;8.30;3.22;;;;;;;9.18;100.00;100118.22;4983783;28;20366;-55
2023/04/24 05:10:34;;;;;;;6.38;3.30;;;;;;;9.25;100.00;100121.44;4974511;28;20065;-58
2023/04/24 05:13:00;;;;;;;7.30;3.35;;;;;;;9.13;100.00;100133.31;4981632;28;20137;-58
2023/04/24 05:15:26;;;;;;;11.93;3.80;;;;;;;9.22;100.00;100136.41;4980038;28;20027;-59
2023/04/24 05:17:51;;;;;;;8.43;3.78;;;;;;;9.10;100.00;100158.78;4978779;28;20492;-56
2023/04/24 05:20:16;;;;;;;8.70;4.53;;;;;;;9.12;100.00;100160.50;4977497;28;20493;-58
2023/04/24 05:22:42;;;;;;;11.70;6.53;;;;;;;8.87;100.00;100171.94;4977788;28;20385;-55
2023/04/24 05:25:07;;;;;;;13.50;6.88;;;;;;;8.91;100.00;100174.41;4990044;28;20377;-57
2023/04/24 05:27:33;;;;;;;12.07;7.53;;;;;;;8.84;100.00;100171.16;4976610;28;20034;-59
2023/04/24 05:29:58;;;;;;;15.82;8.27;;;;;;;8.84;100.00;100173.78;4978262;28;20366;-55
2023/04/24 05:32:23;;;;;;;16.52;9.48;;;;;;;8.88;100.00;100190.28;4976126;28;20057;-58
2023/04/24 05:34:48;;;;;;;18.83;10.80;;;;;;;8.71;100.00;100204.03;4970980;28;20050;-59
2023/04/24 05:37:14;;;;;;;24.45;11.38;;;;;;;8.69;100.00;100213.72;4972730;28;20065;-58
2023/04/24 05:39:40;;;;;;;24.05;12.07;;;;;;;8.82;100.00;100208.91;4974674;28;20057;-56
2023/04/24 05:42:06;;;;;;;27.75;12.60;;;;;;;8.77;100.00;100216.09;4974486;28;20034;-57
2023/04/24 05:44:31;;;;;;;30.40;11.57;;;;;;;8.78;100.00;100226.53;4983257;28;20073;-57
2023/04/24 05:46:56;;;;;;;18.02;10.93;;;;;;;8.74;100.00;100234.59;4979038;28;20098;-61
2023/04/24 05:49:22;;;;;;;25.17;10.40;;;;;;;8.72;100.00;100238.13;4977959;28;20022;-58
2023/04/24 05:51:47;;;;;;;28.30;10.52;;;;;;;8.77;100.00;100243.22;4975332;28;20034;-56
2023/04/24 05:54:13;;;;;;;24.42;10.82;;;;;;;8.76;100.00;100267.75;4983813;28;20050;-58
2023/04/24 05:56:38;;;;;;;25.35;10.55;;;;;;;8.77;100.00;100266.88;4980764;28;20021;-58
2023/04/24 05:59:04;;;;;;;16.80;8.65;;;;;;;8.78;100.00;100283.47;4974161;28;20019;-57
2023/04/24 06:01:29;;;;;;;22.92;10.00;;;;;;;8.79;100.00;100274.69;4968417;28;20498;-56
2023/04/24 06:03:55;;;;;;;20.38;9.48;;;;;;;8.78;100.00;100280.84;4967884;28;20437;-57
2023/04/24 06:06:20;;;;;;;24.25;8.80;;;;;;;8.81;100.00;100284.22;4976900;28;20061;-59
2023/04/24 06:08:46;;;;;;;21.50;10.18;;;;;;;8.85;100.00;100296.34;5005511;28;20547;-58
2023/04/24 06:11:11;;;;;;;28.70;8.20;;;;;;;8.84;100.00;100299.03;4998634;28;20400;-61
2023/04/24 06:13:36;;;;;;;24.85;8.73;;;;;;;8.89;100.00;100304.13;4978189;28;20025;-54
2023/04/24 06:16:02;;;;;;;24.17;8.70;;;;;;;8.83;100.00;100319.19;4966908;28;20057;-56
2023/04/24 06:18:27;;;;;;;25.75;9.95;;;;;;;8.86;100.00;100323.47;4965774;28;20077;-55
2023/04/24 06:20:52;;;;;;;20.10;8.18;;;;;;;8.78;100.00;100334.25;4966486;28;20023;-60
2023/04/24 06:23:18;;;;;;;23.25;7.57;;;;;;;8.75;100.00;100344.88;4965410;28;20031;-55
2023/04/24 06:25:43;;;;;;;23.98;7.50;;;;;;;8.67;100.00;100346.91;4966317;28;20447;-59
2023/04/24 06:28:08;;;;;;;28.55;7.18;;;;;;;8.77;100.00;100355.31;4966887;28;20050;-57
2023/04/24 06:30:34;;;;;;;26.20;6.22;;;;;;;8.73;100.00;100359.81;4985707;28;20037;-57
2023/04/24 06:32:59;;;;;;;26.88;6.05;;;;;;;8.76;100.00;100364.97;4986903;28;20053;-56
2023/04/24 06:35:24;;;;;;;26.27;5.35;;;;;;;8.75;100.00;100373.75;4979910;28;20118;-58
2023/04/24 06:37:51;;;;;;;22.13;5.70;;;;;;;8.83;100.00;100371.75;4975685;28;20038;-59
2023/04/24 06:40:18;;;;;;;26.02;6.00;;;;;;;8.78;100.00;100384.16;4980255;28;20029;-55
2023/04/24 06:42:43;;;;;;;24.90;6.15;;;;;;;8.75;100.00;100383.41;4984550;28;20412;-58
2023/04/24 06:45:09;;;;;;;21.17;4.93;;;;;;;8.78;100.00;100388.56;4980377;28;20030;-56
2023/04/24 06:47:35;;;;;;;27.42;5.47;;;;;;;8.77;100.00;100398.22;4977331;28;20030;-59
2023/04/24 06:50:00;;;;;;;16.70;4.50;;;;;;;8.87;100.00;100411.91;4982294;28;20046;-60
2023/04/24 06:52:25;;;;;;;20.90;5.45;;;;;;;8.94;100.00;100420.44;4978798;28;20022;-58
2023/04/24 06:54:51;;;;;;;23.77;5.60;;;;;;;8.97;100.00;100415.06;4974050;28;20519;-60
2023/04/24 06:57:17;;;;;;;19.85;4.85;;;;;;;8.93;100.00;100434.47;4986512;28;20508;-59
2023/04/24 06:59:42;;;;;;;25.63;5.43;;;;;;;8.86;100.00;100420.69;4980036;28;20041;-56
2023/04/24 07:02:08;;;;;;;25.13;4.60;;;;;;;8.91;100.00;100457.34;4990578;28;20034;-59
2023/04/24 07:04:33;;;;;;;27.77;6.47;;;;;;;8.95;100.00;100436.16;5007598;28;20467;-59
2023/04/24 07:06:59;;;;;;;26.30;4.25;;;;;;;8.98;100.00;100440.44;5007033;28;20416;-56
2023/04/24 07:09:25;;;;;;;22.02;4.18;;;;;;;8.78;100.00;100464.72;5007187;28;20054;-58
2023/04/24 07:11:51;;;;;;;13.43;3.15;;;;;;;8.65;100.00;100452.00;4995925;28;20030;-60
2023/04/24 07:14:17;;;;;;;24.08;3.80;;;;;;;8.55;100.00;100456.69;4980056;28;20030;-55
2023/04/24 07:16:43;;;;;;;21.88;4.18;;;;;;;8.66;100.00;100460.75;4974434;28;20026;-59
2023/04/24 07:19:08;;;;;;;23.92;4.55;;;;;;;8.55;100.00;100477.69;4987116;28;20101;-58
2023/04/24 07:21:34;;;;;;;35.85;4.78;;;;;;;8.62;100.00;100482.75;4984635;28;20031;-54
2023/04/24 07:23:59;;;;;;;27.90;4.50;;;;;;;8.66;100.00;100484.38;4985411;28;20061;-59
2023/04/24 07:26:26;;;;;;;24.58;4.10;;;;;;;8.64;100.00;100471.28;4988106;28;20019;-57
2023/04/24 07:28:51;;;;;;;25.70;4.07;;;;;;;8.72;100.00;100499.94;4985398;28;20042;-59
2023/04/24 07:31:16;;;;;;;26.17;4.28;;;;;;;8.81;100.00;100499.66;4988006;28;20094;-59
2023/04/24 07:33:42;;;;;;;24.08;3.65;;;;;;;8.78;100.00;100488.38;4988194;28;20034;-57
2023/04/24 07:36:07;;;;;;;27.52;4.22;;;;;;;8.93;100.00;100506.28;4991600;28;20309;-56
2023/04/24 07:38:33;;;;;;;15.10;2.88;;;;;;;9.02;100.00;100499.88;4992108;28;20026;-61
2023/04/24 07:40:58;;;;;;;19.00;3.30;;;;;;;9.05;100.00;100505.03;4984865;28;20071;-58
2023/04/24 07:43:23;;;;;;;17.77;3.50;;;;;;;9.27;100.00;100513.97;4983829;28;20026;-57
2023/04/24 07:45:52;;;;;;;15.70;3.25;;;;;;;9.34;100.00;100539.16;5007546;28;20026;-59
2023/04/24 07:48:17;;;;;;;18.20;2.83;;;;;;;9.41;100.00;100529.28;4982946;28;20035;-57
2023/04/24 07:50:43;;;;;;;18.08;3.05;;;;;;;9.34;100.00;100532.09;4985548;28;20033;-55
2023/04/24 07:53:09;;;;;;;20.23;3.53;;;;;;;9.50;100.00;100538.59;4986909;28;20042;-58
2023/04/24 07:55:34;;;;;;;14.23;2.88;;;;;;;9.49;100.00;100548.28;4975569;28;20070;-58
2023/04/24 07:58:00;;;;;;;15.63;3.38;;;;;;;9.54;100.00;100551.59;4988225;28;20457;-57
2023/04/24 08:00:25;;;;;;;21.25;3.72;;;;;;;9.52;100.00;100548.19;4986439;28;20056;-56
2023/04/24 08:02:50;;;;;;;21.17;3.33;;;;;;;9.48;100.00;100557.94;4987043;28;20073;-57
2023/04/24 08:05:16;;;;;;;13.13;3.63;;;;;;;9.34;100.00;100557.56;4967087;28;20031;-58
2023/04/24 08:07:42;;;;;;;17.25;3.05;;;;;;;9.31;100.00;100568.16;4979475;28;20446;-57
2023/04/24 08:10:10;;;;;;;19.88;3.30;;;;;;;9.21;100.00;100565.84;4985268;28;20068;-57
2023/04/24 08:12:35;;;;;;;17.95;2.88;;;;;;;9.26;100.00;100585.84;4978838;28;20034;-58
2023/04/24 08:15:01;;;;;;;19.83;2.65;;;;;;;9.46;100.00;100572.91;4970094;28;20344;-60
2023/04/24 08:17:26;;;;;;;13.38;2.80;;;;;;;9.44;100.00;100587.03;4979953;28;20389;-58
2023/04/24 08:19:53;;;;;;;17.83;3.33;;;;;;;9.51;100.00;100587.69;4984112;28;20520;-59
2023/04/24 08:22:18;;;;;;;21.92;3.80;;;;;;;9.57;100.00;100590.97;4986090;28;20036;-59
2023/04/24 08:24:44;;;;;;;20.33;2.80;;;;;;;9.63;100.00;100604.84;5001298;28;20037;-59
2023/04/24 08:27:10;;;;;;;9.32;2.58;;;;;;;9.72;100.00;100593.97;4986505;28;20041;-59
2023/04/24 08:29:36;;;;;;;17.73;2.88;;;;;;;9.95;100.00;100616.00;4968484;28;20027;-60
2023/04/24 08:32:01;;;;;;;13.77;2.50;;;;;;;10.07;100.00;100612.09;4970727;28;20049;-61
2023/04/24 08:34:27;;;;;;;17.17;2.90;;;;;;;10.29;100.00;100620.06;4979838;28;20105;-59
2023/04/24 08:36:52;;;;;;;19.25;2.60;;;;;;;10.25;100.00;100642.19;4982653;28;20022;-56
2023/04/24 08:39:17;;;;;;;6.30;1.98;;;;;;;10.25;100.00;100621.09;4987716;28;20045;-56
2023/04/24 08:41:45;;;;;;;9.55;1.90;;;;;;;10.23;100.00;100642.22;4983715;28;20672;-53
2023/04/24 08:44:11;;;;;;;8.75;2.08;;;;;;;10.10;100.00;100635.69;4987022;28;20042;-59
2023/04/24 08:46:37;;;;;;;10.18;2.45;;;;;;;10.17;100.00;100644.22;4984527;28;20153;-59
2023/04/24 08:49:03;;;;;;;6.32;1.73;;;;;;;10.08;100.00;100643.63;4974151;28;20101;-56
2023/04/24 08:51:30;;;;;;;7.05;2.55;;;;;;;10.03;100.00;100642.94;4986690;28;20540;-56
2023/04/24 08:53:55;;;;;;;9.02;2.00;;;;;;;9.92;100.00;100648.56;4984443;28;20084;-57
2023/04/24 08:56:23;;;;;;;9.38;1.75;;;;;;;9.78;100.00;100651.66;4986821;28;20026;-57
2023/04/24 08:58:49;;;;;;;11.20;2.00;;;;;;;9.81;100.00;100656.81;4985850;28;20586;-56
2023/04/24 09:01:14;;;;;;;17.58;2.15;;;;;;;9.83;100.00;100646.25;4980029;28;20121;-59
2023/04/24 09:03:40;;;;;;;7.75;1.85;;;;;;;9.88;100.00;100654.00;4985145;28;20100;-54
2023/04/24 09:06:06;;;;;;;12.05;2.42;;;;;;;10.11;100.00;100661.94;4984656;28;20027;-56
2023/04/24 09:08:32;;;;;;;11.95;3.97;;;;;;;10.28;100.00;100652.59;4984995;28;20444;-58
2023/04/24 09:10:58;;;;;;;10.50;2.28;;;;;;;10.21;100.00;100661.63;4980587;28;20034;-57
2023/04/24 09:13:24;;;;;;;10.27;2.00;;;;;;;10.41;100.00;100660.91;5005394;28;20464;-58
2023/04/24 09:15:50;;;;;;;8.68;1.40;;;;;;;10.47;100.00;100670.41;4973868;28;20634;-56
2023/04/24 09:18:15;;;;;;;2.05;1.10;;;;;;;10.22;100.00;100671.25;4965404;28;20058;-55
2023/04/24 09:21:01;;;;;;;13.13;2.17;;;;;;;9.74;100.00;100686.88;4967926;28;20038;-59
2023/04/24 09:23:30;;;;;;;3.38;1.30;;;;;;;9.56;100.00;100688.34;4978209;28;20493;-59
2023/04/24 09:25:57;;;;;;;11.63;1.70;;;;;;;9.45;100.00;100696.59;4972559;28;20035;-59
2023/04/24 09:28:41;;;;;;;8.15;1.58;;;;;;;9.79;100.00;100703.41;4972051;28;20027;-60
2023/04/24 09:31:11;;;;;;;6.40;1.30;;;;;;;9.82;100.00;100692.75;4978230;28;20072;-55
2023/04/24 09:33:37;;;;;;;6.78;1.40;;;;;;;10.13;100.00;100700.53;4986512;28;20545;-59
2023/04/24 09:36:03;;;;;;;2.30;0.90;;;;;;;10.31;100.00;100702.53;4985431;28;20665;-59
2023/04/24 09:38:35;;;;;;;6.50;2.13;;;;;;;10.51;100.00;100689.59;4985199;28;20358;-57
2023/04/24 09:41:05;;;;;;;3.58;1.15;;;;;;;10.79;100.00;100684.19;4982103;28;20030;-62
2023/04/24 09:43:31;;;;;;;7.68;1.30;;;;;;;10.93;100.00;100688.06;4998650;28;20021;-59
2023/04/24 09:45:58;;;;;;;7.55;1.23;;;;;;;10.77;100.00;100704.44;4978755;28;20022;-58
2023/04/24 09:48:31;;;;;;;7.20;1.35;;;;;;;10.99;100.00;100707.13;4985015;28;20104;-56
2023/04/24 09:50:56;;;;;;;11.50;1.38;;;;;;;11.16;100.00;100747.84;5003869;28;20042;-57
2023/04/24 09:53:25;;;;;;;9.50;1.25;;;;;;;11.04;100.00;100728.06;4994986;28;20018;-58
2023/04/24 09:55:52;;;;;;;4.20;1.55;;;;;;;10.78;100.00;100739.56;4995492;28;20445;-56
2023/04/24 09:58:18;;;;;;;7.38;1.17;;;;;;;10.63;100.00;100720.78;4981189;28;20023;-58
2023/04/24 10:00:45;;;;;;;6.75;1.45;;;;;;;10.20;100.00;100736.25;4985118;28;20392;-60
2023/04/24 10:03:11;;;;;;;13.00;2.65;;;;;;;10.23;100.00;100742.28;4984449;28;20047;-59
2023/04/24 10:05:38;;;;;;;6.95;1.15;;;;;;;10.41;100.00;100736.47;4982631;28;20042;-55
2023/04/24 10:08:09;;;;;;;4.53;1.08;;;;;;;10.29;100.00;100754.38;4975098;28;20015;-60
2023/04/24 10:10:38;;;;;;;8.73;1.33;;;;;;;10.15;100.00;100761.91;4980746;28;20035;-58
2023/04/24 10:13:04;;;;;;;7.20;1.50;;;;;;;9.72;100.00;100752.72;4986582;28;20065;-55
2023/04/24 10:15:30;;;;;;;8.10;1.10;;;;;;;9.73;100.00;100777.28;4971489;28;20022;-60
2023/04/24 10:17:58;;;;;;;6.20;1.00;;;;;;;9.71;100.00;100773.81;4969769;28;20033;-58
2023/04/24 10:20:25;;;;;;;3.83;0.93;;;;;;;9.94;100.00;100773.06;4972745;28;20057;-58
2023/04/24 10:22:52;;;;;;;6.13;1.13;;;;;;;10.26;100.00;100751.00;4969768;28;20063;-61
2023/04/24 10:25:23;;;;;;;4.75;1.10;;;;;;;10.51;100.00;100752.81;4970069;28;20023;-60
2023/04/24 10:27:49;;;;;;;5.88;1.42;;;;;;;10.67;100.00;100748.72;4986985;28;20069;-61
2023/04/24 10:30:15;;;;;;;3.60;0.90;;;;;;;10.75;100.00;100761.63;4989034;28;20408;-60
2023/04/24 10:32:40;;;;;;;5.88;1.17;;;;;;;10.61;100.00;100768.25;4985665;28;20030;-60
2023/04/24 10:35:07;;;;;;;3.65;1.00;;;;;;;10.85;100.00;100773.56;4986675;28;20080;-58
2023/04/24 10:37:47;;;;;;;5.40;1.05;;;;;;;10.80;100.00;100764.97;4987622;28;20543;-58
2023/04/24 10:40:18;;;;;;;5.93;0.75;;;;;;;11.01;100.00;100767.72;4969930;28;20019;-59
2023/04/24 10:42:47;;;;;;;3.50;1.00;;;;;;;11.23;100.00;100759.03;4975243;28;20101;-59
2023/04/24 10:45:21;;;;;;;8.00;1.05;;;;;;;11.17;100.00;100768.00;4984617;28;20035;-61
2023/04/24 10:48:02;;;;;;;6.72;1.10;;;;;;;11.72;100.00;100768.56;4978559;28;20316;-61
2023/04/24 10:50:30;;;;;;;9.07;1.35;;;;;;;11.96;100.00;100771.16;4980741;28;20034;-59
2023/04/24 10:53:06;;;;;;;10.93;1.75;;;;;;;11.87;100.00;100767.94;4988318;28;20084;-60
2023/04/24 10:55:43;;;;;;;16.63;2.08;;;;;;;11.61;100.00;100783.06;4973430;28;20035;-59
2023/04/24 10:58:08;;;;;;;6.97;1.60;;;;;;;11.24;100.00;100797.66;4970875;28;20027;-56
2023/04/24 11:00:36;;;;;;;10.02;1.67;;;;;;;10.71;100.00;100839.06;4970678;28;20027;-61
2023/04/24 11:03:04;;;;;;;10.00;1.50;;;;;;;10.57;100.00;100814.06;4991332;28;20066;-60
2023/04/24 11:05:52;;;;;;;8.18;1.67;;;;;;;10.38;100.00;100828.75;4990349;28;20529;-59
2023/04/24 11:08:27;;;;;;;6.40;1.25;;;;;;;10.58;100.00;100814.91;4987700;28;20030;-60
2023/04/24 11:11:10;;;;;;;9.00;1.60;;;;;;;10.83;100.00;100809.66;4985509;28;20125;-59
2023/04/24 11:13:53;;;;;;;8.13;1.40;;;;;;;11.30;100.00;100807.13;4970428;28;20509;-61
2023/04/24 11:16:46;;;;;;;12.93;2.22;;;;;;;11.70;100.00;100812.63;4968002;28;20109;-61
2023/04/24 11:19:15;;;;;;;10.95;1.50;;;;;;;12.01;100.00;100806.13;4969510;28;20031;-61